Time;durP1;ratioP1;P1;durP2;ratioP2;P2;SDS_P1;SDS_P2;PMS_P1;PMS_P2;Temp;Humidity;BMP_temperature;BMP_pressure;BME280_temperature;BME280_humidity;BME280_pressure;Samples;Min_cycle;Max_cycle;Signal;HPM_P1;HPM_P2
2023/05/06 00:00:34;;;;;;;11.20;10.00;;;9.70;99.90;;;;;;5099475;28;20633;-35
2023/05/06 00:03:00;;;;;;;11.90;8.10;;;9.70;99.90;;;;;;5098280;28;20457;-37
2023/05/06 00:05:26;;;;;;;10.27;9.30;;;9.70;99.90;;;;;;5095518;28;20054;-41
2023/05/06 00:07:52;;;;;;;10.00;9.07;;;9.70;99.90;;;;;;5098415;28;20449;-38
2023/05/06 00:10:18;;;;;;;8.60;7.80;;;9.70;99.90;;;;;;5099156;28;20091;-38
2023/05/06 00:12:44;;;;;;;6.13;5.40;;;9.70;99.90;;;;;;5097991;28;20043;-37
2023/05/06 00:15:10;;;;;;;7.05;6.35;;;9.70;99.90;;;;;;5098386;28;20466;-34
2023/05/06 00:17:35;;;;;;;8.20;7.40;;;9.70;99.90;;;;;;5098679;28;20047;-40
2023/05/06 00:20:02;;;;;;;8.88;8.05;;;9.70;99.90;;;;;;5098643;28;20051;-39
2023/05/06 00:22:28;;;;;;;6.93;6.32;;;9.80;99.90;;;;;;5092156;28;20056;-36
2023/05/06 00:24:53;;;;;;;12.50;6.50;;;9.80;99.90;;;;;;5097175;28;20066;-38
2023/05/06 00:27:19;;;;;;;8.70;7.80;;;9.90;99.90;;;;;;5098050;28;20179;-39
2023/05/06 00:29:45;;;;;;;8.93;7.70;;;9.90;99.90;;;;;;5098666;28;20059;-34
2023/05/06 00:32:10;;;;;;;10.23;7.43;;;9.90;99.90;;;;;;5097576;28;20046;-35
2023/05/06 00:34:36;;;;;;;11.25;9.65;;;10.00;99.90;;;;;;5097867;28;20128;-42
2023/05/06 00:37:02;;;;;;;10.48;9.45;;;10.10;99.90;;;;;;5097625;28;20533;-36
2023/05/06 00:39:28;;;;;;;10.05;9.15;;;10.20;99.90;;;;;;5095442;28;20398;-36
2023/05/06 00:42:01;;;;;;;9.93;8.95;;;10.20;99.90;;;;;;5086003;28;20123;-41
2023/05/06 00:44:27;;;;;;;9.70;8.73;;;10.30;99.90;;;;;;5098322;28;20499;-42
2023/05/06 00:46:53;;;;;;;11.93;9.68;;;10.40;99.90;;;;;;5097189;28;20058;-40
2023/05/06 00:49:20;;;;;;;12.10;10.02;;;10.40;99.90;;;;;;5095165;28;20279;-37
2023/05/06 00:51:46;;;;;;;12.45;11.15;;;10.40;99.90;;;;;;5086930;28;20384;-34
2023/05/06 00:54:12;;;;;;;11.60;10.48;;;10.50;99.90;;;;;;5097720;28;20104;-38
2023/05/06 00:56:39;;;;;;;13.70;11.85;;;10.50;99.90;;;;;;5092444;28;20693;-39
2023/05/06 00:59:04;;;;;;;12.45;11.20;;;10.50;99.90;;;;;;5097731;28;20051;-37
2023/05/06 01:01:30;;;;;;;12.55;11.35;;;10.60;99.90;;;;;;5092218;27;20032;-39
2023/05/06 01:03:57;;;;;;;13.48;12.18;;;10.60;99.90;;;;;;5081549;28;20101;-42
2023/05/06 01:06:35;;;;;;;11.15;9.98;;;10.60;99.90;;;;;;5095997;28;20059;-35
2023/05/06 01:09:12;;;;;;;13.55;12.25;;;10.60;99.90;;;;;;5074646;28;20601;-46
2023/05/06 01:11:44;;;;;;;12.13;10.43;;;10.60;99.90;;;;;;5095099;27;20330;-37
2023/05/06 01:14:19;;;;;;;13.20;11.70;;;10.50;99.90;;;;;;5083799;28;20104;-38
2023/05/06 01:16:49;;;;;;;14.13;12.73;;;10.50;99.90;;;;;;5096674;28;20281;-36
2023/05/06 01:19:37;;;;;;;14.65;12.75;;;10.50;99.90;;;;;;5096931;28;20096;-35
2023/05/06 01:22:06;;;;;;;16.33;13.63;;;10.50;99.90;;;;;;5096458;28;20083;-35
2023/05/06 01:24:40;;;;;;;13.75;12.50;;;10.50;99.90;;;;;;5096359;28;20052;-40
2023/05/06 01:27:07;;;;;;;14.57;13.05;;;10.40;99.90;;;;;;5096996;28;20051;-43
2023/05/06 01:29:35;;;;;;;15.48;13.63;;;10.40;99.90;;;;;;5098084;28;20097;-34
2023/05/06 01:32:45;;;;;;;14.68;13.07;;;10.40;99.90;;;;;;5096974;28;20533;-38
2023/05/06 01:35:46;;;;;;;14.80;13.18;;;10.40;99.90;;;;;;5077431;28;20051;-37
2023/05/06 01:38:18;;;;;;;16.25;12.68;;;10.40;99.90;;;;;;5033540;28;20060;-37
2023/05/06 01:40:48;;;;;;;14.63;13.13;;;10.40;99.90;;;;;;5032943;28;20475;-39
2023/05/06 01:43:17;;;;;;;15.00;13.43;;;10.30;99.90;;;;;;5008381;28;20066;-38
2023/05/06 01:45:48;;;;;;;15.18;13.65;;;10.30;99.90;;;;;;5025476;28;20064;-41
2023/05/06 01:48:14;;;;;;;18.90;13.73;;;10.30;99.90;;;;;;5010379;28;20151;-39
2023/05/06 01:50:40;;;;;;;16.15;14.18;;;10.20;99.90;;;;;;5019204;28;20447;-44
2023/05/06 01:53:06;;;;;;;15.43;13.73;;;10.20;99.90;;;;;;5005687;28;20049;-39
2023/05/06 01:55:31;;;;;;;13.32;11.88;;;10.20;99.90;;;;;;5003672;28;20068;-36
2023/05/06 01:57:57;;;;;;;17.58;15.02;;;10.10;99.90;;;;;;5024862;28;20496;-37
2023/05/06 02:00:24;;;;;;;15.85;13.85;;;10.10;99.90;;;;;;5000056;28;20045;-36
2023/05/06 02:02:50;;;;;;;18.00;16.05;;;10.10;99.90;;;;;;5008733;28;20150;-37
2023/05/06 02:05:15;;;;;;;17.77;15.25;;;10.10;99.90;;;;;;5016849;28;20147;-35
2023/05/06 02:07:41;;;;;;;16.33;14.68;;;10.00;99.90;;;;;;5028647;28;20045;-41
2023/05/06 02:10:07;;;;;;;20.08;15.70;;;10.00;99.90;;;;;;4990727;28;20071;-41
2023/05/06 02:12:33;;;;;;;16.52;14.82;;;10.00;99.90;;;;;;5010181;28;20122;-40
2023/05/06 02:14:59;;;;;;;18.83;15.88;;;10.00;99.90;;;;;;5056467;28;20059;-40
2023/05/06 02:17:25;;;;;;;16.95;15.15;;;9.90;99.90;;;;;;5096166;28;20134;-36
2023/05/06 02:19:50;;;;;;;18.10;15.07;;;10.00;99.90;;;;;;5096344;28;20089;-36
2023/05/06 02:22:16;;;;;;;16.73;13.80;;;10.00;99.90;;;;;;5095572;28;20126;-37
2023/05/06 02:24:41;;;;;;;17.83;15.23;;;9.90;99.90;;;;;;5095205;28;20127;-37
2023/05/06 02:27:07;;;;;;;18.17;15.52;;;9.90;99.90;;;;;;5095854;28;20501;-35
2023/05/06 02:29:33;;;;;;;15.68;13.95;;;9.80;99.90;;;;;;5077895;28;20362;-39
2023/05/06 02:31:59;;;;;;;15.93;14.20;;;9.80;99.90;;;;;;5077453;28;20124;-41
2023/05/06 02:34:24;;;;;;;17.45;13.93;;;9.70;99.90;;;;;;5095988;28;20112;-41
2023/05/06 02:36:50;;;;;;;17.35;14.82;;;9.80;99.90;;;;;;5094688;28;20047;-37
2023/05/06 02:39:16;;;;;;;17.35;14.70;;;9.70;99.90;;;;;;5096144;28;20077;-35
2023/05/06 02:41:41;;;;;;;16.85;14.60;;;9.70;99.90;;;;;;5094987;28;20040;-39
2023/05/06 02:44:07;;;;;;;17.00;13.43;;;9.70;99.90;;;;;;5095192;28;20035;-36
2023/05/06 02:46:34;;;;;;;14.90;13.10;;;9.70;99.90;;;;;;5095053;28;20769;-34
2023/05/06 02:49:00;;;;;;;15.07;13.48;;;9.60;99.90;;;;;;5078102;28;20101;-44
2023/05/06 02:51:25;;;;;;;213.35;18.27;;;9.50;99.90;;;;;;5095023;28;20130;-36
2023/05/06 02:53:51;;;;;;;103.85;11.82;;;9.50;99.90;;;;;;5095360;28;20043;-40
2023/05/06 02:56:17;;;;;;;79.80;9.23;;;9.20;99.90;;;;;;5095030;28;20130;-34
2023/05/06 02:58:42;;;;;;;68.32;9.82;;;9.10;99.90;;;;;;5095182;28;20047;-35
2023/05/06 03:01:08;;;;;;;15.90;8.05;;;9.00;99.90;;;;;;5096998;28;20032;-35
2023/05/06 03:03:34;;;;;;;11.32;9.68;;;8.90;99.90;;;;;;5093448;28;20069;-36
2023/05/06 03:05:59;;;;;;;12.77;10.40;;;9.00;99.90;;;;;;5094256;28;20409;-42
2023/05/06 03:08:25;;;;;;;12.60;11.05;;;9.00;99.90;;;;;;5095662;28;20040;-37
2023/05/06 03:10:51;;;;;;;11.88;10.68;;;9.10;99.90;;;;;;5095048;28;20035;-35
2023/05/06 03:13:16;;;;;;;11.43;10.30;;;9.10;99.90;;;;;;5076166;28;20062;-40
2023/05/06 03:15:42;;;;;;;11.85;10.63;;;9.20;99.90;;;;;;5094979;28;20046;-34
2023/05/06 03:18:08;;;;;;;12.95;11.65;;;9.20;99.90;;;;;;5096063;28;20117;-38
2023/05/06 03:20:33;;;;;;;10.90;9.73;;;9.30;99.90;;;;;;5082913;28;20468;-39
2023/05/06 03:22:59;;;;;;;10.75;9.73;;;9.40;99.90;;;;;;5095532;28;20044;-44
2023/05/06 03:25:25;;;;;;;12.27;11.07;;;9.40;99.90;;;;;;5095324;28;20051;-41
2023/05/06 03:27:51;;;;;;;12.32;11.02;;;9.50;99.90;;;;;;5094768;28;20127;-35
2023/05/06 03:30:16;;;;;;;13.70;12.20;;;9.50;99.90;;;;;;5095864;28;20463;-39
2023/05/06 03:32:42;;;;;;;12.73;11.32;;;9.60;99.90;;;;;;5076830;28;20128;-34
2023/05/06 03:35:10;;;;;;;12.45;10.73;;;9.60;99.90;;;;;;5094842;28;20073;-34
2023/05/06 03:37:35;;;;;;;11.68;10.52;;;9.50;99.90;;;;;;5095242;28;20098;-37
2023/05/06 03:40:03;;;;;;;13.73;12.32;;;9.50;99.90;;;;;;5088982;28;20134;-36
2023/05/06 03:42:29;;;;;;;30.55;11.35;;;9.50;99.90;;;;;;5098358;28;20062;-43
2023/05/06 03:44:55;;;;;;;15.20;11.70;;;9.50;99.90;;;;;;5098799;28;20056;-40
2023/05/06 03:47:21;;;;;;;14.55;13.05;;;9.40;99.90;;;;;;5098731;28;20043;-34
2023/05/06 03:49:47;;;;;;;15.27;13.68;;;9.40;99.90;;;;;;5098788;28;20075;-39
2023/05/06 03:52:12;;;;;;;17.73;14.25;;;9.40;99.90;;;;;;5098128;27;20082;-38
2023/05/06 03:54:38;;;;;;;16.58;14.02;;;9.40;99.90;;;;;;5097751;28;20048;-40
2023/05/06 03:57:04;;;;;;;16.60;14.75;;;9.50;99.90;;;;;;5098572;28;20138;-39
2023/05/06 03:59:29;;;;;;;17.02;15.25;;;9.50;99.90;;;;;;5114742;27;20476;-40
2023/05/06 04:01:55;;;;;;;19.48;15.93;;;9.50;99.90;;;;;;5098340;28;20052;-35
2023/05/06 04:04:21;;;;;;;19.02;17.02;;;9.60;99.90;;;;;;5098026;28;20054;-41
2023/05/06 04:06:46;;;;;;;16.67;14.88;;;9.70;99.90;;;;;;5097808;28;20074;-40
2023/05/06 04:09:12;;;;;;;15.93;14.32;;;9.70;99.90;;;;;;5098804;28;20105;-34
2023/05/06 04:11:38;;;;;;;16.08;14.38;;;9.70;99.90;;;;;;5098069;28;20513;-35
2023/05/06 04:14:03;;;;;;;18.25;15.05;;;9.80;99.90;;;;;;5098737;28;20593;-38
2023/05/06 04:16:29;;;;;;;17.60;15.70;;;9.90;99.90;;;;;;5098310;28;20044;-42
2023/05/06 04:18:56;;;;;;;19.67;15.07;;;9.90;99.90;;;;;;5091463;28;20082;-34
2023/05/06 04:21:22;;;;;;;16.67;14.48;;;10.00;99.90;;;;;;5098131;28;20050;-38
2023/05/06 04:23:47;;;;;;;15.80;13.48;;;10.00;99.90;;;;;;5098492;28;20043;-37
2023/05/06 04:26:13;;;;;;;14.95;13.38;;;10.00;99.90;;;;;;5098170;28;20044;-40
2023/05/06 04:28:39;;;;;;;16.60;14.80;;;10.00;99.90;;;;;;5098314;28;20582;-34
2023/05/06 04:31:07;;;;;;;17.40;15.30;;;10.00;99.90;;;;;;5079848;28;20136;-42
2023/05/06 04:33:33;;;;;;;18.23;14.75;;;10.00;99.90;;;;;;5098351;28;20048;-34
2023/05/06 04:35:59;;;;;;;15.32;13.73;;;10.00;99.90;;;;;;5065508;28;20152;-43
2023/05/06 04:38:29;;;;;;;15.27;13.68;;;10.10;99.90;;;;;;5079874;28;20043;-41
2023/05/06 04:40:55;;;;;;;16.63;14.52;;;10.10;99.90;;;;;;5097644;28;20158;-38
2023/05/06 04:43:21;;;;;;;17.00;14.77;;;10.10;99.90;;;;;;5097843;28;20047;-34
2023/05/06 04:45:49;;;;;;;16.75;14.05;;;10.10;99.90;;;;;;5097681;28;20785;-39
2023/05/06 04:48:19;;;;;;;21.48;16.80;;;10.10;99.90;;;;;;5097926;28;20155;-41
2023/05/06 04:50:45;;;;;;;18.13;16.23;;;10.10;99.90;;;;;;5097006;28;20049;-39
2023/05/06 04:53:12;;;;;;;18.88;16.48;;;10.20;99.90;;;;;;5096492;28;20047;-37
2023/05/06 04:55:37;;;;;;;18.33;16.13;;;10.20;99.90;;;;;;5096991;28;20079;-37
2023/05/06 04:58:03;;;;;;;21.58;16.65;;;10.20;99.90;;;;;;5097566;28;20577;-36
2023/05/06 05:00:29;;;;;;;19.67;16.10;;;10.30;99.90;;;;;;5096997;28;20047;-40
2023/05/06 05:02:55;;;;;;;19.30;16.45;;;10.30;99.90;;;;;;5097265;28;20610;-34
2023/05/06 05:05:20;;;;;;;18.23;16.38;;;10.30;99.90;;;;;;5096237;28;20052;-39
2023/05/06 05:07:46;;;;;;;18.42;15.15;;;10.50;99.90;;;;;;5097006;28;20112;-39
2023/05/06 05:10:12;;;;;;;19.90;16.85;;;10.50;99.90;;;;;;5097176;28;20500;-39
2023/05/06 05:12:37;;;;;;;22.85;17.10;;;10.70;99.90;;;;;;5096561;28;20093;-34
2023/05/06 05:15:03;;;;;;;18.25;15.77;;;10.80;99.90;;;;;;5096521;28;20501;-37
2023/05/06 05:17:30;;;;;;;16.98;14.55;;;10.80;99.90;;;;;;5097233;28;20127;-43
2023/05/06 05:19:55;;;;;;;17.52;15.70;;;10.80;99.90;;;;;;5097746;28;20048;-37
2023/05/06 05:22:21;;;;;;;16.65;14.98;;;10.80;99.90;;;;;;5096767;28;20051;-38
2023/05/06 05:24:47;;;;;;;17.10;15.40;;;11.00;99.90;;;;;;5097063;28;20043;-39
2023/05/06 05:27:12;;;;;;;16.48;14.82;;;11.20;99.90;;;;;;5097321;28;20548;-34
2023/05/06 05:29:38;;;;;;;20.67;15.35;;;11.20;99.90;;;;;;5097031;28;20147;-38
2023/05/06 05:32:04;;;;;;;17.20;15.40;;;11.20;99.90;;;;;;5090746;28;20063;-35
2023/05/06 05:34:30;;;;;;;17.20;15.40;;;11.20;99.90;;;;;;5094628;28;20407;-40
2023/05/06 05:36:56;;;;;;;17.83;15.93;;;11.40;99.90;;;;;;5097045;28;20381;-37
2023/05/06 05:39:22;;;;;;;20.20;17.30;;;11.80;99.90;;;;;;5096828;28;20052;-38
2023/05/06 05:41:48;;;;;;;17.83;16.02;;;12.80;99.90;;;;;;5096028;28;20152;-36
2023/05/06 05:44:14;;;;;;;16.10;14.52;;;14.30;99.90;;;;;;5096166;28;20048;-37
2023/05/06 05:46:40;;;;;;;15.02;13.43;;;15.30;99.90;;;;;;5096254;28;20052;-37
2023/05/06 05:49:06;;;;;;;14.45;13.02;;;16.30;99.90;;;;;;5096930;28;20135;-41
2023/05/06 05:51:32;;;;;;;14.65;13.25;;;17.20;99.90;;;;;;5084109;28;20558;-40
2023/05/06 05:53:57;;;;;;;15.18;13.68;;;18.00;99.90;;;;;;5096347;28;20051;-40
2023/05/06 05:56:23;;;;;;;15.98;13.07;;;18.50;99.90;;;;;;5095780;28;20468;-36
2023/05/06 05:58:48;;;;;;;13.27;12.00;;;19.30;99.90;;;;;;5093503;28;20836;-40
2023/05/06 06:01:14;;;;;;;13.15;11.95;;;20.40;99.90;;;;;;5093970;28;20039;-36
2023/05/06 06:03:40;;;;;;;12.07;10.90;;;21.10;99.90;;;;;;5095085;28;20055;-40
2023/05/06 06:06:06;;;;;;;13.63;12.23;;;21.70;99.90;;;;;;5094858;28;20120;-40
2023/05/06 06:08:32;;;;;;;12.45;11.35;;;22.30;99.90;;;;;;5089186;28;20054;-39
2023/05/06 06:11:00;;;;;;;11.73;10.68;;;22.60;99.90;;;;;;5074157;28;20055;-37
2023/05/06 06:13:26;;;;;;;13.25;12.02;;;22.60;99.90;;;;;;5099914;27;20124;-40
2023/05/06 06:15:52;;;;;;;13.82;12.52;;;20.90;99.90;;;;;;5094213;27;20172;-39
2023/05/06 06:18:18;;;;;;;12.68;11.57;;;20.30;99.90;;;;;;5094186;28;20048;-39
2023/05/06 06:20:43;;;;;;;13.20;11.90;;;19.80;99.90;;;;;;5089215;28;20402;-41
2023/05/06 06:23:09;;;;;;;13.10;11.90;;;19.40;99.90;;;;;;5095529;28;20082;-37
2023/05/06 06:25:35;;;;;;;15.07;13.68;;;19.10;99.90;;;;;;5095096;28;20135;-40
2023/05/06 06:28:01;;;;;;;13.98;12.80;;;18.40;99.90;;;;;;5096061;28;20043;-43
2023/05/06 06:30:27;;;;;;;13.07;11.80;;;17.90;99.90;;;;;;5092819;28;20050;-39
2023/05/06 06:32:54;;;;;;;12.95;11.75;;;17.60;99.90;;;;;;5097917;27;20103;-40
2023/05/06 06:35:20;;;;;;;13.02;11.77;;;18.20;99.90;;;;;;5098132;27;20126;-39
2023/05/06 06:37:46;;;;;;;14.02;12.52;;;19.00;99.90;;;;;;5095588;28;20509;-36
2023/05/06 06:40:12;;;;;;;13.68;12.38;;;19.50;99.90;;;;;;5097497;28;20040;-45
2023/05/06 06:42:38;;;;;;;13.93;12.73;;;19.90;99.90;;;;;;5100616;28;20861;-41
2023/05/06 06:45:08;;;;;;;12.55;11.35;;;20.50;99.90;;;;;;5106332;28;20043;-38
2023/05/06 06:47:34;;;;;;;12.10;10.98;;;21.10;99.90;;;;;;5109602;28;20548;-38
2023/05/06 06:49:59;;;;;;;12.45;11.35;;;21.10;99.90;;;;;;5083567;28;20043;-44
2023/05/06 06:52:25;;;;;;;12.68;11.50;;;21.40;99.90;;;;;;5094736;28;20066;-41
2023/05/06 06:54:51;;;;;;;12.30;11.30;;;22.10;99.90;;;;;;5074353;28;20054;-38
2023/05/06 06:57:17;;;;;;;13.07;11.82;;;22.80;99.90;;;;;;5096517;28;20092;-43
2023/05/06 06:59:42;;;;;;;12.50;11.45;;;22.80;99.90;;;;;;5096501;28;20166;-37
2023/05/06 07:02:08;;;;;;;13.23;12.02;;;22.40;99.90;;;;;;5095665;28;20040;-36
2023/05/06 07:04:34;;;;;;;11.93;10.90;;;21.60;99.90;;;;;;5096015;28;20040;-40
2023/05/06 07:06:59;;;;;;;12.63;11.52;;;20.70;99.90;;;;;;5096243;28;20513;-41
2023/05/06 07:09:25;;;;;;;13.93;11.57;;;20.00;99.90;;;;;;5095742;28;20468;-41
2023/05/06 07:11:50;;;;;;;13.63;12.32;;;19.40;99.90;;;;;;5095272;28;20039;-36
2023/05/06 07:14:16;;;;;;;12.82;11.65;;;19.00;99.90;;;;;;5093829;28;20065;-38
2023/05/06 07:16:42;;;;;;;13.60;12.38;;;18.70;99.90;;;;;;5081295;28;20504;-39
2023/05/06 07:19:07;;;;;;;13.55;12.13;;;18.60;99.90;;;;;;5100111;28;20073;-40
2023/05/06 07:21:33;;;;;;;12.05;10.98;;;18.70;99.90;;;;;;5099748;28;20071;-40
2023/05/06 07:23:59;;;;;;;12.82;11.52;;;19.00;99.90;;;;;;5099378;28;20057;-45
2023/05/06 07:26:25;;;;;;;13.30;12.02;;;19.00;99.90;;;;;;5099454;28;20039;-41
2023/05/06 07:28:50;;;;;;;12.70;11.50;;;19.10;99.90;;;;;;5099454;28;20070;-38
2023/05/06 07:31:19;;;;;;;12.77;11.50;;;18.70;99.90;;;;;;5099443;28;20040;-42
2023/05/06 07:33:46;;;;;;;13.90;12.50;;;18.60;99.90;;;;;;5099150;28;20384;-41
2023/05/06 07:36:12;;;;;;;14.10;12.70;;;18.50;99.90;;;;;;5099141;28;20039;-42
2023/05/06 07:38:38;;;;;;;14.60;13.13;;;18.50;99.90;;;;;;5099450;28;20254;-36
2023/05/06 07:41:03;;;;;;;13.98;12.68;;;18.50;99.90;;;;;;5099240;28;20043;-44
2023/05/06 07:43:29;;;;;;;15.65;14.13;;;18.60;99.90;;;;;;5099816;28;20046;-44
2023/05/06 07:46:01;;;;;;;16.25;14.65;;;18.60;99.90;;;;;;5099059;28;20144;-39
2023/05/06 07:48:27;;;;;;;14.52;13.02;;;18.70;99.90;;;;;;5098765;28;20709;-39
2023/05/06 07:50:53;;;;;;;15.15;13.75;;;19.10;99.90;;;;;;5098301;28;20180;-40
2023/05/06 07:53:19;;;;;;;14.98;13.48;;;19.40;99.90;;;;;;5098253;28;20044;-39
2023/05/06 07:55:44;;;;;;;13.98;12.68;;;19.60;99.90;;;;;;5098753;28;20134;-39
2023/05/06 07:58:10;;;;;;;13.68;12.27;;;19.80;99.90;;;;;;5098752;28;20050;-36
2023/05/06 08:00:36;;;;;;;15.13;13.68;;;19.70;99.90;;;;;;5099332;28;20124;-35
2023/05/06 08:03:01;;;;;;;15.00;13.10;;;19.60;99.90;;;;;;5099051;28;20040;-37
2023/05/06 08:05:27;;;;;;;14.43;12.93;;;19.50;99.90;;;;;;5080678;28;20051;-41
2023/05/06 08:07:53;;;;;;;13.68;12.38;;;19.50;99.90;;;;;;5098563;28;20044;-38
2023/05/06 08:10:18;;;;;;;14.27;12.90;;;19.40;99.90;;;;;;5098578;28;20052;-37
2023/05/06 08:12:44;;;;;;;14.07;12.77;;;19.50;99.90;;;;;;5099101;28;20039;-40
2023/05/06 08:15:10;;;;;;;13.43;11.95;;;19.50;99.90;;;;;;5099126;28;20046;-39
2023/05/06 08:17:36;;;;;;;12.10;11.02;;;19.50;99.90;;;;;;5098980;28;20044;-37
2023/05/06 08:20:01;;;;;;;12.13;11.05;;;19.60;99.90;;;;;;5099289;28;20047;-43
2023/05/06 08:22:27;;;;;;;11.93;10.82;;;19.70;99.90;;;;;;5100050;28;20823;-41
2023/05/06 08:24:53;;;;;;;13.15;11.82;;;19.60;99.90;;;;;;5099157;28;20039;-42
2023/05/06 08:27:19;;;;;;;11.85;10.65;;;19.70;99.90;;;;;;5098132;28;20913;-42
2023/05/06 08:29:45;;;;;;;12.13;11.02;;;19.80;99.90;;;;;;5099157;28;20043;-41
2023/05/06 08:32:10;;;;;;;12.73;11.50;;;19.80;99.90;;;;;;5098360;28;20048;-37
2023/05/06 08:34:36;;;;;;;12.48;11.18;;;19.90;99.90;;;;;;5097897;28;20051;-43
2023/05/06 08:37:02;;;;;;;13.13;12.02;;;20.00;99.90;;;;;;5098511;28;20043;-39
2023/05/06 08:39:27;;;;;;;13.70;12.50;;;20.20;99.90;;;;;;5098809;28;20538;-36
2023/05/06 08:41:55;;;;;;;12.52;11.32;;;20.20;99.90;;;;;;5096017;28;20477;-39
2023/05/06 08:44:23;;;;;;;12.18;11.07;;;20.30;99.90;;;;;;5097873;28;20043;-37
2023/05/06 08:46:49;;;;;;;10.70;9.63;;;20.50;99.90;;;;;;5098736;28;20393;-38
2023/05/06 08:49:15;;;;;;;9.80;8.90;;;20.60;99.90;;;;;;5098121;28;20062;-40
2023/05/06 08:51:43;;;;;;;10.50;9.43;;;20.60;99.90;;;;;;5097365;28;20139;-40
2023/05/06 08:54:10;;;;;;;12.15;10.95;;;20.70;99.90;;;;;;5085511;28;20142;-39
2023/05/06 08:56:38;;;;;;;11.07;10.10;;;20.70;99.90;;;;;;5097974;28;20426;-42
2023/05/06 08:59:07;;;;;;;12.18;10.10;;;20.80;99.90;;;;;;5114082;27;20582;-38
2023/05/06 09:01:34;;;;;;;9.88;8.98;;;20.70;99.90;;;;;;5097735;28;20422;-38
2023/05/06 09:04:02;;;;;;;11.93;10.57;;;20.70;99.90;;;;;;5086826;28;20078;-43
2023/05/06 09:06:28;;;;;;;10.52;9.48;;;20.60;99.90;;;;;;5098355;28;20047;-37
2023/05/06 09:08:54;;;;;;;11.85;10.23;;;20.70;99.90;;;;;;5088660;28;20079;-38
2023/05/06 09:11:22;;;;;;;11.27;10.18;;;20.60;99.90;;;;;;5097368;28;20123;-39
2023/05/06 09:13:48;;;;;;;10.50;9.40;;;20.60;99.90;;;;;;5095952;28;20047;-36
2023/05/06 09:16:28;;;;;;;10.90;9.80;;;20.70;99.90;;;;;;5097884;28;20047;-44
2023/05/06 09:18:53;;;;;;;9.63;8.65;;;20.50;99.90;;;;;;5098232;28;20074;-39
2023/05/06 09:21:19;;;;;;;11.63;10.52;;;20.50;99.90;;;;;;5112307;27;20505;-40
2023/05/06 09:23:45;;;;;;;12.00;10.63;;;20.50;99.90;;;;;;5097368;28;20043;-41
2023/05/06 09:26:11;;;;;;;12.65;11.10;;;20.60;99.90;;;;;;5097663;28;20130;-38
2023/05/06 09:28:36;;;;;;;11.80;9.75;;;20.80;99.90;;;;;;5097002;28;20050;-43
2023/05/06 09:31:02;;;;;;;11.02;9.88;;;20.80;99.90;;;;;;5097172;28;20050;-41
2023/05/06 09:33:28;;;;;;;11.80;10.68;;;20.80;99.90;;;;;;5098109;28;20840;-36
2023/05/06 09:35:54;;;;;;;11.82;10.68;;;20.70;99.90;;;;;;5096971;28;20039;-38
2023/05/06 09:38:20;;;;;;;12.15;10.93;;;20.60;99.90;;;;;;5097365;28;20048;-44
2023/05/06 09:40:46;;;;;;;10.57;9.57;;;20.50;99.90;;;;;;5097045;28;20409;-38
2023/05/06 09:43:12;;;;;;;13.63;11.25;;;20.40;99.90;;;;;;5097860;28;20712;-40
2023/05/06 09:45:38;;;;;;;13.77;11.25;;;20.80;99.90;;;;;;5112223;27;20398;-42
2023/05/06 09:48:05;;;;;;;13.02;11.73;;;20.90;99.90;;;;;;5085702;28;20059;-38
2023/05/06 09:50:31;;;;;;;12.23;11.13;;;20.80;99.90;;;;;;5096530;28;20047;-38
2023/05/06 09:52:59;;;;;;;12.70;11.35;;;20.70;99.90;;;;;;5097185;28;20043;-40
2023/05/06 09:55:26;;;;;;;12.25;11.05;;;20.80;99.90;;;;;;5083430;28;20050;-35
2023/05/06 09:57:52;;;;;;;16.90;15.00;;;20.80;99.90;;;;;;5097313;28;20536;-40
2023/05/06 10:00:18;;;;;;;15.48;13.15;;;20.80;99.90;;;;;;5096849;28;20035;-39
2023/05/06 10:02:46;;;;;;;14.48;13.07;;;20.60;99.90;;;;;;5097258;28;20078;-39
2023/05/06 10:05:12;;;;;;;15.02;13.43;;;20.30;99.90;;;;;;5096644;28;20048;-40
2023/05/06 10:07:39;;;;;;;15.00;13.55;;;20.20;99.90;;;;;;5097153;28;20039;-41
2023/05/06 10:10:12;;;;;;;15.32;13.70;;;19.90;99.90;;;;;;5097374;28;20374;-36
2023/05/06 10:12:38;;;;;;;14.98;13.48;;;19.90;99.90;;;;;;5097406;28;20070;-35
2023/05/06 10:15:04;;;;;;;15.45;14.02;;;19.90;99.90;;;;;;5097098;28;20044;-37
2023/05/06 10:17:31;;;;;;;17.13;14.13;;;19.90;99.90;;;;;;5097582;28;20398;-44
2023/05/06 10:19:59;;;;;;;16.13;14.45;;;19.80;99.90;;;;;;5078525;28;20055;-43
2023/05/06 10:22:48;;;;;;;14.90;13.20;;;19.70;99.90;;;;;;5095582;28;20097;-36
2023/05/06 10:25:26;;;;;;;17.58;15.57;;;19.60;99.90;;;;;;5088423;28;20051;-38
2023/05/06 10:27:52;;;;;;;18.17;16.48;;;19.40;99.90;;;;;;5096466;28;20520;-40
2023/05/06 10:30:18;;;;;;;19.48;17.67;;;19.50;99.90;;;;;;5096255;28;20055;-41
2023/05/06 10:32:44;;;;;;;16.95;14.95;;;19.60;99.90;;;;;;5097171;28;21022;-37
2023/05/06 10:35:31;;;;;;;13.90;12.50;;;19.90;99.90;;;;;;5096125;28;20044;-40
2023/05/06 10:37:58;;;;;;;19.38;17.17;;;20.20;99.90;;;;;;5097188;28;20040;-39
2023/05/06 10:40:24;;;;;;;18.90;17.00;;;20.30;99.90;;;;;;5096193;28;20043;-39
2023/05/06 10:42:50;;;;;;;20.17;18.08;;;20.20;99.90;;;;;;5097477;28;20135;-39
2023/05/06 10:45:15;;;;;;;17.77;15.98;;;20.00;99.90;;;;;;5096492;28;20866;-40
2023/05/06 10:47:56;;;;;;;17.05;14.95;;;19.80;99.90;;;;;;5096770;28;20495;-42
2023/05/06 10:50:26;;;;;;;17.35;15.55;;;19.80;99.90;;;;;;5097882;28;20405;-36
2023/05/06 10:52:57;;;;;;;18.30;16.15;;;19.80;99.90;;;;;;5100537;28;20104;-36
2023/05/06 10:55:34;;;;;;;18.30;16.23;;;19.80;99.90;;;;;;5100243;28;20044;-37
2023/05/06 10:58:11;;;;;;;18.80;16.85;;;19.80;99.90;;;;;;5099964;28;20051;-42
2023/05/06 11:00:37;;;;;;;19.20;17.27;;;19.60;99.90;;;;;;5099981;28;20100;-42
2023/05/06 11:03:09;;;;;;;18.85;17.02;;;19.60;99.90;;;;;;5100635;28;20516;-41
2023/05/06 11:05:49;;;;;;;19.35;17.35;;;19.50;99.90;;;;;;5100359;28;20039;-43
2023/05/06 11:08:21;;;;;;;19.98;17.88;;;19.60;99.90;;;;;;5100125;28;20051;-39
2023/05/06 11:10:47;;;;;;;20.67;18.67;;;19.60;99.90;;;;;;5099677;28;20040;-39
2023/05/06 11:13:26;;;;;;;21.75;19.00;;;19.70;99.90;;;;;;5100500;28;20438;-41
2023/05/06 11:15:53;;;;;;;22.80;18.30;;;19.80;99.90;;;;;;5100012;28;20078;-37
2023/05/06 11:18:33;;;;;;;18.23;14.82;;;19.90;99.90;;;;;;5100457;28;20284;-38
2023/05/06 11:20:59;;;;;;;15.73;14.13;;;20.20;99.90;;;;;;5085993;28;20067;-41
2023/05/06 11:23:53;;;;;;;13.57;12.18;;;20.10;99.90;;;;;;5100049;28;20086;-41
2023/05/06 11:26:19;;;;;;;15.80;13.35;;;20.40;99.90;;;;;;5087063;28;20688;-41
2023/05/06 11:28:47;;;;;;;18.35;13.75;;;20.40;99.90;;;;;;5098814;28;20050;-39
2023/05/06 11:31:14;;;;;;;16.70;13.30;;;20.50;99.90;;;;;;5089003;28;20485;-38
2023/05/06 11:33:47;;;;;;;16.80;15.05;;;20.60;99.90;;;;;;5099485;28;20398;-36
2023/05/06 11:36:17;;;;;;;14.68;13.18;;;20.80;99.90;;;;;;5100620;28;20054;-41
2023/05/06 11:38:51;;;;;;;13.38;11.75;;;20.80;99.90;;;;;;5099847;28;20386;-36
2023/05/06 11:41:17;;;;;;;13.70;10.73;;;21.20;99.90;;;;;;5099716;28;20039;-39
2023/05/06 11:43:50;;;;;;;19.42;13.48;;;21.60;99.90;;;;;;5099344;28;20086;-36
2023/05/06 11:46:17;;;;;;;;;;;21.70;99.90;;;;;;5099925;28;20439;-36
2023/05/06 11:48:43;;;;;;;13.88;10.82;;;21.80;99.90;;;;;;5099810;28;19971;-39
2023/05/06 11:51:11;;;;;;;17.88;11.32;;;21.80;99.90;;;;;;5099474;28;20224;-41
2023/05/06 11:53:36;;;;;;;16.17;11.88;;;21.70;99.90;;;;;;5098600;27;20305;-44
2023/05/06 11:56:05;;;;;;;13.75;11.65;;;21.50;99.90;;;;;;5100177;28;20048;-37
2023/05/06 11:58:31;;;;;;;14.23;11.10;;;21.40;99.90;;;;;;5099577;28;20623;-42
2023/05/06 12:01:01;;;;;;;14.57;10.68;;;21.60;99.90;;;;;;5098501;28;21001;-40
2023/05/06 12:03:28;;;;;;;11.40;9.95;;;21.60;99.90;;;;;;5099305;28;20507;-44
2023/05/06 12:05:54;;;;;;;11.43;8.20;;;21.70;99.90;;;;;;5099964;28;20039;-38
2023/05/06 12:08:22;;;;;;;13.82;10.75;;;21.70;99.90;;;;;;5098827;28;20539;-35
2023/05/06 12:10:52;;;;;;;13.40;10.98;;;21.70;99.90;;;;;;5098509;28;20047;-44
2023/05/06 12:13:19;;;;;;;13.43;8.38;;;21.70;99.90;;;;;;5099313;28;20044;-37
2023/05/06 12:15:46;;;;;;;15.55;10.35;;;21.70;99.90;;;;;;5086372;28;20128;-39
2023/05/06 12:18:12;;;;;;;14.05;10.45;;;21.70;99.90;;;;;;5078564;27;20043;-43
2023/05/06 12:20:38;;;;;;;14.20;10.75;;;21.70;99.90;;;;;;5105579;27;21341;-39
2023/05/06 12:23:08;;;;;;;11.25;8.60;;;21.50;99.90;;;;;;5102720;27;20042;-36
2023/05/06 12:25:33;;;;;;;6.82;5.45;;;21.50;99.90;;;;;;5101182;27;20047;-42
2023/05/06 12:27:59;;;;;;;9.00;5.80;;;21.60;99.90;;;;;;5097542;28;20466;-46
2023/05/06 12:30:33;;;;;;;6.93;4.70;;;21.40;99.90;;;;;;5075999;28;20048;-40